sensor_id;sensor_type;location;lat;lon;timestamp;P1;durP1;ratioP1;P2;durP2;ratioP2
21822;SDS011;11074;48.596;9.238;2023-06-22T00:01:27;9.07;;;6.60;;
21822;SDS011;11074;48.596;9.238;2023-06-22T00:03:53;10.25;;;7.03;;
21822;SDS011;11074;48.596;9.238;2023-06-22T00:06:19;8.80;;;6.93;;
21822;SDS011;11074;48.596;9.238;2023-06-22T00:08:45;9.82;;;6.95;;
21822;SDS011;11074;48.596;9.238;2023-06-22T00:11:10;12.00;;;6.65;;
21822;SDS011;11074;48.596;9.238;2023-06-22T00:13:37;10.18;;;7.22;;
21822;SDS011;11074;48.596;9.238;2023-06-22T00:16:03;11.30;;;6.95;;
21822;SDS011;11074;48.596;9.238;2023-06-22T00:18:29;9.07;;;6.65;;
21822;SDS011;11074;48.596;9.238;2023-06-22T00:20:55;10.27;;;7.25;;
21822;SDS011;11074;48.596;9.238;2023-06-22T00:23:24;11.32;;;7.05;;
21822;SDS011;11074;48.596;9.238;2023-06-22T00:25:50;10.48;;;6.57;;
21822;SDS011;11074;48.596;9.238;2023-06-22T00:28:17;11.15;;;7.18;;
21822;SDS011;11074;48.596;9.238;2023-06-22T00:30:42;8.45;;;6.90;;
21822;SDS011;11074;48.596;9.238;2023-06-22T00:33:08;11.45;;;6.65;;
21822;SDS011;11074;48.596;9.238;2023-06-22T00:35:34;12.32;;;7.45;;
21822;SDS011;11074;48.596;9.238;2023-06-22T00:38:00;10.90;;;6.88;;
21822;SDS011;11074;48.596;9.238;2023-06-22T00:40:27;13.27;;;7.38;;
21822;SDS011;11074;48.596;9.238;2023-06-22T00:42:55;9.73;;;6.88;;
21822;SDS011;11074;48.596;9.238;2023-06-22T00:45:21;8.40;;;6.78;;
21822;SDS011;11074;48.596;9.238;2023-06-22T00:47:52;10.63;;;6.90;;
21822;SDS011;11074;48.596;9.238;2023-06-22T00:50:21;8.52;;;6.70;;
21822;SDS011;11074;48.596;9.238;2023-06-22T00:52:51;12.65;;;6.20;;
21822;SDS011;11074;48.596;9.238;2023-06-22T00:55:21;11.13;;;6.47;;
21822;SDS011;11074;48.596;9.238;2023-06-22T00:57:48;7.97;;;6.63;;
21822;SDS011;11074;48.596;9.238;2023-06-22T01:00:15;10.73;;;7.43;;
21822;SDS011;11074;48.596;9.238;2023-06-22T01:02:45;11.55;;;7.45;;
21822;SDS011;11074;48.596;9.238;2023-06-22T01:05:12;9.77;;;7.78;;
21822;SDS011;11074;48.596;9.238;2023-06-22T01:07:41;11.30;;;7.57;;
21822;SDS011;11074;48.596;9.238;2023-06-22T01:12:55;11.63;;;6.97;;
21822;SDS011;11074;48.596;9.238;2023-06-22T01:15:36;9.30;;;6.97;;
21822;SDS011;11074;48.596;9.238;2023-06-22T01:18:09;8.88;;;7.78;;
21822;SDS011;11074;48.596;9.238;2023-06-22T01:20:36;11.95;;;7.38;;
21822;SDS011;11074;48.596;9.238;2023-06-22T01:26:01;9.98;;;7.20;;
21822;SDS011;11074;48.596;9.238;2023-06-22T01:28:57;11.45;;;7.68;;
21822;SDS011;11074;48.596;9.238;2023-06-22T01:31:26;12.07;;;8.43;;
21822;SDS011;11074;48.596;9.238;2023-06-22T01:33:58;11.38;;;7.65;;
21822;SDS011;11074;48.596;9.238;2023-06-22T01:36:29;12.50;;;7.95;;
21822;SDS011;11074;48.596;9.238;2023-06-22T01:38:58;12.40;;;8.23;;
21822;SDS011;11074;48.596;9.238;2023-06-22T01:41:26;13.60;;;7.38;;
21822;SDS011;11074;48.596;9.238;2023-06-22T01:43:54;10.20;;;7.10;;
21822;SDS011;11074;48.596;9.238;2023-06-22T01:46:20;9.10;;;7.47;;
21822;SDS011;11074;48.596;9.238;2023-06-22T01:48:48;10.32;;;7.22;;
21822;SDS011;11074;48.596;9.238;2023-06-22T01:51:16;11.68;;;8.02;;
21822;SDS011;11074;48.596;9.238;2023-06-22T01:53:42;12.02;;;7.57;;
21822;SDS011;11074;48.596;9.238;2023-06-22T01:56:08;11.45;;;7.55;;
21822;SDS011;11074;48.596;9.238;2023-06-22T01:58:34;10.52;;;7.65;;
21822;SDS011;11074;48.596;9.238;2023-06-22T02:01:13;11.30;;;6.97;;
21822;SDS011;11074;48.596;9.238;2023-06-22T02:04:06;11.02;;;7.10;;
21822;SDS011;11074;48.596;9.238;2023-06-22T02:06:39;11.80;;;7.05;;
21822;SDS011;11074;48.596;9.238;2023-06-22T02:09:11;12.38;;;6.80;;
21822;SDS011;11074;48.596;9.238;2023-06-22T02:11:42;11.10;;;7.38;;
21822;SDS011;11074;48.596;9.238;2023-06-22T02:14:12;14.45;;;7.78;;
21822;SDS011;11074;48.596;9.238;2023-06-22T02:16:40;11.45;;;7.45;;
21822;SDS011;11074;48.596;9.238;2023-06-22T02:19:07;9.48;;;7.15;;
21822;SDS011;11074;48.596;9.238;2023-06-22T02:21:33;8.45;;;7.15;;
21822;SDS011;11074;48.596;9.238;2023-06-22T02:23:59;11.63;;;7.10;;
21822;SDS011;11074;48.596;9.238;2023-06-22T02:26:25;11.00;;;7.22;;
21822;SDS011;11074;48.596;9.238;2023-06-22T02:28:52;9.30;;;7.00;;
21822;SDS011;11074;48.596;9.238;2023-06-22T02:31:18;10.13;;;7.40;;
21822;SDS011;11074;48.596;9.238;2023-06-22T02:33:44;10.27;;;7.28;;
21822;SDS011;11074;48.596;9.238;2023-06-22T02:36:10;11.57;;;7.43;;
21822;SDS011;11074;48.596;9.238;2023-06-22T02:38:38;10.13;;;7.43;;
21822;SDS011;11074;48.596;9.238;2023-06-22T02:41:10;11.73;;;7.90;;
21822;SDS011;11074;48.596;9.238;2023-06-22T02:43:38;10.57;;;7.15;;
21822;SDS011;11074;48.596;9.238;2023-06-22T02:46:03;10.95;;;7.68;;
21822;SDS011;11074;48.596;9.238;2023-06-22T02:48:29;9.57;;;7.15;;
21822;SDS011;11074;48.596;9.238;2023-06-22T02:50:55;10.35;;;7.10;;
21822;SDS011;11074;48.596;9.238;2023-06-22T02:53:20;9.10;;;7.30;;
21822;SDS011;11074;48.596;9.238;2023-06-22T02:55:46;14.00;;;6.72;;
21822;SDS011;11074;48.596;9.238;2023-06-22T02:58:12;11.32;;;7.30;;
21822;SDS011;11074;48.596;9.238;2023-06-22T03:00:37;11.07;;;7.30;;
21822;SDS011;11074;48.596;9.238;2023-06-22T03:03:04;11.18;;;6.85;;
21822;SDS011;11074;48.596;9.238;2023-06-22T03:05:29;10.63;;;7.55;;
21822;SDS011;11074;48.596;9.238;2023-06-22T03:07:55;12.50;;;7.97;;
21822;SDS011;11074;48.596;9.238;2023-06-22T03:10:21;13.13;;;8.48;;
21822;SDS011;11074;48.596;9.238;2023-06-22T03:12:47;16.45;;;8.13;;
21822;SDS011;11074;48.596;9.238;2023-06-22T03:15:12;10.88;;;7.65;;
21822;SDS011;11074;48.596;9.238;2023-06-22T03:17:38;11.73;;;8.02;;
21822;SDS011;11074;48.596;9.238;2023-06-22T03:20:06;11.52;;;7.68;;
21822;SDS011;11074;48.596;9.238;2023-06-22T03:22:37;10.88;;;8.35;;
21822;SDS011;11074;48.596;9.238;2023-06-22T03:25:04;9.70;;;7.40;;
21822;SDS011;11074;48.596;9.238;2023-06-22T03:27:36;13.18;;;8.43;;
21822;SDS011;11074;48.596;9.238;2023-06-22T03:30:02;12.77;;;8.45;;
21822;SDS011;11074;48.596;9.238;2023-06-22T03:32:28;12.23;;;7.50;;
21822;SDS011;11074;48.596;9.238;2023-06-22T03:34:54;11.85;;;8.07;;
21822;SDS011;11074;48.596;9.238;2023-06-22T03:37:24;11.10;;;8.30;;
21822;SDS011;11074;48.596;9.238;2023-06-22T03:39:50;11.23;;;7.43;;
21822;SDS011;11074;48.596;9.238;2023-06-22T03:42:17;11.88;;;8.40;;
21822;SDS011;11074;48.596;9.238;2023-06-22T03:44:42;11.65;;;7.85;;
21822;SDS011;11074;48.596;9.238;2023-06-22T03:47:08;14.77;;;8.68;;
21822;SDS011;11074;48.596;9.238;2023-06-22T03:49:34;8.88;;;7.35;;
21822;SDS011;11074;48.596;9.238;2023-06-22T03:52:01;13.70;;;8.25;;
21822;SDS011;11074;48.596;9.238;2023-06-22T03:54:28;11.50;;;8.32;;
21822;SDS011;11074;48.596;9.238;2023-06-22T03:56:55;16.50;;;7.80;;
21822;SDS011;11074;48.596;9.238;2023-06-22T03:59:22;13.10;;;8.15;;
21822;SDS011;11074;48.596;9.238;2023-06-22T04:01:48;10.68;;;7.88;;
21822;SDS011;11074;48.596;9.238;2023-06-22T04:04:15;9.23;;;7.85;;
21822;SDS011;11074;48.596;9.238;2023-06-22T04:06:40;10.35;;;7.45;;
21822;SDS011;11074;48.596;9.238;2023-06-22T04:09:06;14.98;;;7.40;;
21822;SDS011;11074;48.596;9.238;2023-06-22T04:11:32;13.52;;;8.25;;
21822;SDS011;11074;48.596;9.238;2023-06-22T04:13:57;10.43;;;8.07;;
21822;SDS011;11074;48.596;9.238;2023-06-22T04:16:23;11.07;;;7.80;;
21822;SDS011;11074;48.596;9.238;2023-06-22T04:18:49;11.68;;;7.90;;
21822;SDS011;11074;48.596;9.238;2023-06-22T04:21:14;15.25;;;7.80;;
21822;SDS011;11074;48.596;9.238;2023-06-22T04:23:40;10.32;;;7.93;;
21822;SDS011;11074;48.596;9.238;2023-06-22T04:26:06;12.95;;;8.32;;
21822;SDS011;11074;48.596;9.238;2023-06-22T04:28:31;12.68;;;7.90;;
21822;SDS011;11074;48.596;9.238;2023-06-22T04:31:03;11.48;;;8.73;;
21822;SDS011;11074;48.596;9.238;2023-06-22T04:33:29;12.57;;;8.77;;
21822;SDS011;11074;48.596;9.238;2023-06-22T04:35:55;11.13;;;8.18;;
21822;SDS011;11074;48.596;9.238;2023-06-22T04:38:28;11.50;;;8.18;;
21822;SDS011;11074;48.596;9.238;2023-06-22T04:40:58;13.38;;;9.32;;
21822;SDS011;11074;48.596;9.238;2023-06-22T04:43:26;13.23;;;8.55;;
21822;SDS011;11074;48.596;9.238;2023-06-22T04:45:55;13.80;;;8.52;;
21822;SDS011;11074;48.596;9.238;2023-06-22T04:48:28;12.68;;;8.52;;
21822;SDS011;11074;48.596;9.238;2023-06-22T04:50:58;11.43;;;8.77;;
21822;SDS011;11074;48.596;9.238;2023-06-22T04:53:28;13.20;;;8.63;;
21822;SDS011;11074;48.596;9.238;2023-06-22T04:55:55;11.15;;;9.40;;
21822;SDS011;11074;48.596;9.238;2023-06-22T04:58:20;10.32;;;8.00;;
21822;SDS011;11074;48.596;9.238;2023-06-22T05:00:46;12.35;;;8.43;;
21822;SDS011;11074;48.596;9.238;2023-06-22T05:03:13;14.73;;;8.57;;
21822;SDS011;11074;48.596;9.238;2023-06-22T05:05:38;12.60;;;9.02;;
21822;SDS011;11074;48.596;9.238;2023-06-22T05:08:04;12.00;;;7.80;;
21822;SDS011;11074;48.596;9.238;2023-06-22T05:10:31;11.77;;;7.85;;
21822;SDS011;11074;48.596;9.238;2023-06-22T05:12:58;12.80;;;8.18;;
21822;SDS011;11074;48.596;9.238;2023-06-22T05:15:24;14.63;;;8.77;;
21822;SDS011;11074;48.596;9.238;2023-06-22T05:17:53;12.10;;;8.52;;
21822;SDS011;11074;48.596;9.238;2023-06-22T05:20:19;12.98;;;8.18;;
21822;SDS011;11074;48.596;9.238;2023-06-22T05:22:44;13.43;;;9.20;;
21822;SDS011;11074;48.596;9.238;2023-06-22T05:25:10;10.65;;;8.23;;
21822;SDS011;11074;48.596;9.238;2023-06-22T05:27:38;12.43;;;8.25;;
21822;SDS011;11074;48.596;9.238;2023-06-22T05:30:07;10.93;;;7.80;;
21822;SDS011;11074;48.596;9.238;2023-06-22T05:32:34;12.07;;;8.02;;
21822;SDS011;11074;48.596;9.238;2023-06-22T05:35:02;12.35;;;8.13;;
21822;SDS011;11074;48.596;9.238;2023-06-22T05:37:28;13.07;;;7.25;;
21822;SDS011;11074;48.596;9.238;2023-06-22T05:39:54;11.55;;;7.40;;
21822;SDS011;11074;48.596;9.238;2023-06-22T05:42:22;10.60;;;7.30;;
21822;SDS011;11074;48.596;9.238;2023-06-22T05:44:50;12.00;;;6.97;;
21822;SDS011;11074;48.596;9.238;2023-06-22T05:47:18;12.02;;;6.72;;
21822;SDS011;11074;48.596;9.238;2023-06-22T05:49:43;11.02;;;6.60;;
21822;SDS011;11074;48.596;9.238;2023-06-22T05:52:09;12.40;;;6.55;;
21822;SDS011;11074;48.596;9.238;2023-06-22T05:54:35;9.82;;;6.45;;
21822;SDS011;11074;48.596;9.238;2023-06-22T05:57:00;10.00;;;6.43;;
21822;SDS011;11074;48.596;9.238;2023-06-22T05:59:26;9.27;;;5.60;;
21822;SDS011;11074;48.596;9.238;2023-06-22T06:01:52;13.90;;;6.95;;
21822;SDS011;11074;48.596;9.238;2023-06-22T06:04:18;9.15;;;6.15;;
21822;SDS011;11074;48.596;9.238;2023-06-22T06:06:44;11.80;;;6.03;;
21822;SDS011;11074;48.596;9.238;2023-06-22T06:09:12;7.93;;;5.70;;
21822;SDS011;11074;48.596;9.238;2023-06-22T06:11:39;9.35;;;6.00;;
21822;SDS011;11074;48.596;9.238;2023-06-22T06:14:04;12.98;;;5.95;;
21822;SDS011;11074;48.596;9.238;2023-06-22T06:16:30;9.13;;;5.90;;
21822;SDS011;11074;48.596;9.238;2023-06-22T06:18:56;8.98;;;5.45;;
21822;SDS011;11074;48.596;9.238;2023-06-22T06:21:23;9.52;;;5.90;;
21822;SDS011;11074;48.596;9.238;2023-06-22T06:23:49;9.43;;;5.80;;
21822;SDS011;11074;48.596;9.238;2023-06-22T06:26:14;9.68;;;5.53;;
21822;SDS011;11074;48.596;9.238;2023-06-22T06:28:41;10.43;;;6.20;;
21822;SDS011;11074;48.596;9.238;2023-06-22T06:31:10;7.22;;;5.40;;
21822;SDS011;11074;48.596;9.238;2023-06-22T06:33:37;9.32;;;6.28;;
21822;SDS011;11074;48.596;9.238;2023-06-22T06:36:02;9.88;;;5.75;;
21822;SDS011;11074;48.596;9.238;2023-06-22T06:38:29;7.60;;;5.70;;
21822;SDS011;11074;48.596;9.238;2023-06-22T06:40:56;8.18;;;5.80;;
21822;SDS011;11074;48.596;9.238;2023-06-22T06:43:21;8.18;;;6.03;;
21822;SDS011;11074;48.596;9.238;2023-06-22T06:45:48;9.35;;;5.70;;
21822;SDS011;11074;48.596;9.238;2023-06-22T06:48:14;8.95;;;5.75;;
21822;SDS011;11074;48.596;9.238;2023-06-22T06:50:40;9.75;;;6.25;;
21822;SDS011;11074;48.596;9.238;2023-06-22T06:53:05;10.02;;;6.00;;
21822;SDS011;11074;48.596;9.238;2023-06-22T06:55:31;8.45;;;5.65;;
21822;SDS011;11074;48.596;9.238;2023-06-22T06:57:58;8.95;;;5.85;;
21822;SDS011;11074;48.596;9.238;2023-06-22T07:00:24;10.63;;;5.57;;
21822;SDS011;11074;48.596;9.238;2023-06-22T07:02:50;8.93;;;5.45;;
21822;SDS011;11074;48.596;9.238;2023-06-22T07:05:16;9.15;;;5.35;;
21822;SDS011;11074;48.596;9.238;2023-06-22T07:07:42;10.05;;;5.57;;
21822;SDS011;11074;48.596;9.238;2023-06-22T07:10:08;10.55;;;5.90;;
21822;SDS011;11074;48.596;9.238;2023-06-22T07:12:34;8.43;;;5.45;;
21822;SDS011;11074;48.596;9.238;2023-06-22T07:15:11;7.97;;;5.03;;
21822;SDS011;11074;48.596;9.238;2023-06-22T07:17:37;10.57;;;5.20;;
21822;SDS011;11074;48.596;9.238;2023-06-22T07:20:06;8.50;;;5.45;;
21822;SDS011;11074;48.596;9.238;2023-06-22T07:22:40;8.57;;;5.25;;
21822;SDS011;11074;48.596;9.238;2023-06-22T07:25:07;9.38;;;5.25;;
21822;SDS011;11074;48.596;9.238;2023-06-22T07:27:35;7.43;;;5.18;;
21822;SDS011;11074;48.596;9.238;2023-06-22T07:30:09;9.80;;;5.57;;
21822;SDS011;11074;48.596;9.238;2023-06-22T07:32:35;9.27;;;5.32;;
21822;SDS011;11074;48.596;9.238;2023-06-22T07:35:02;9.57;;;5.47;;
21822;SDS011;11074;48.596;9.238;2023-06-22T07:37:29;8.70;;;5.30;;
21822;SDS011;11074;48.596;9.238;2023-06-22T07:39:55;10.30;;;5.50;;
21822;SDS011;11074;48.596;9.238;2023-06-22T07:42:27;9.10;;;5.13;;
21822;SDS011;11074;48.596;9.238;2023-06-22T07:44:57;9.38;;;5.43;;
21822;SDS011;11074;48.596;9.238;2023-06-22T07:47:23;8.18;;;4.95;;
21822;SDS011;11074;48.596;9.238;2023-06-22T07:49:53;11.40;;;4.78;;
21822;SDS011;11074;48.596;9.238;2023-06-22T07:52:22;11.32;;;5.47;;
21822;SDS011;11074;48.596;9.238;2023-06-22T07:54:48;7.97;;;4.63;;
21822;SDS011;11074;48.596;9.238;2023-06-22T07:57:13;11.43;;;5.47;;
21822;SDS011;11074;48.596;9.238;2023-06-22T07:59:39;9.57;;;5.45;;
21822;SDS011;11074;48.596;9.238;2023-06-22T08:02:05;9.25;;;5.18;;
21822;SDS011;11074;48.596;9.238;2023-06-22T08:04:30;13.35;;;5.25;;
21822;SDS011;11074;48.596;9.238;2023-06-22T08:06:59;7.45;;;5.30;;
21822;SDS011;11074;48.596;9.238;2023-06-22T08:09:24;10.55;;;5.07;;
21822;SDS011;11074;48.596;9.238;2023-06-22T08:11:53;11.48;;;5.82;;
21822;SDS011;11074;48.596;9.238;2023-06-22T08:14:19;12.70;;;5.07;;
21822;SDS011;11074;48.596;9.238;2023-06-22T08:16:44;8.77;;;4.90;;
21822;SDS011;11074;48.596;9.238;2023-06-22T08:19:11;12.23;;;5.32;;
21822;SDS011;11074;48.596;9.238;2023-06-22T08:21:36;9.00;;;5.55;;
21822;SDS011;11074;48.596;9.238;2023-06-22T08:24:03;9.48;;;5.30;;
21822;SDS011;11074;48.596;9.238;2023-06-22T08:26:29;7.97;;;5.03;;
21822;SDS011;11074;48.596;9.238;2023-06-22T08:28:54;7.75;;;4.93;;
21822;SDS011;11074;48.596;9.238;2023-06-22T08:31:20;12.18;;;5.47;;
21822;SDS011;11074;48.596;9.238;2023-06-22T08:33:46;12.23;;;5.57;;
21822;SDS011;11074;48.596;9.238;2023-06-22T08:36:11;10.95;;;5.47;;
21822;SDS011;11074;48.596;9.238;2023-06-22T08:38:38;8.35;;;5.10;;
21822;SDS011;11074;48.596;9.238;2023-06-22T08:41:04;11.77;;;5.50;;
21822;SDS011;11074;48.596;9.238;2023-06-22T08:43:30;11.23;;;5.63;;
21822;SDS011;11074;48.596;9.238;2023-06-22T08:45:55;8.90;;;5.55;;
21822;SDS011;11074;48.596;9.238;2023-06-22T08:48:21;9.10;;;4.90;;
21822;SDS011;11074;48.596;9.238;2023-06-22T08:50:47;11.80;;;5.82;;
21822;SDS011;11074;48.596;9.238;2023-06-22T08:53:12;9.75;;;5.40;;
21822;SDS011;11074;48.596;9.238;2023-06-22T08:55:38;9.60;;;5.28;;
21822;SDS011;11074;48.596;9.238;2023-06-22T08:58:03;10.73;;;5.57;;
21822;SDS011;11074;48.596;9.238;2023-06-22T09:00:29;10.85;;;5.25;;
21822;SDS011;11074;48.596;9.238;2023-06-22T09:02:57;10.65;;;5.68;;
21822;SDS011;11074;48.596;9.238;2023-06-22T09:05:24;11.35;;;5.78;;
21822;SDS011;11074;48.596;9.238;2023-06-22T09:07:52;9.85;;;5.78;;
21822;SDS011;11074;48.596;9.238;2023-06-22T09:10:19;10.52;;;6.47;;
21822;SDS011;11074;48.596;9.238;2023-06-22T09:12:45;9.63;;;5.10;;
21822;SDS011;11074;48.596;9.238;2023-06-22T09:15:11;12.23;;;5.63;;
21822;SDS011;11074;48.596;9.238;2023-06-22T09:17:37;9.75;;;5.43;;
21822;SDS011;11074;48.596;9.238;2023-06-22T09:20:03;12.02;;;5.90;;
21822;SDS011;11074;48.596;9.238;2023-06-22T09:22:34;12.18;;;5.80;;
21822;SDS011;11074;48.596;9.238;2023-06-22T09:25:00;10.85;;;5.65;;
21822;SDS011;11074;48.596;9.238;2023-06-22T09:27:26;10.23;;;5.78;;
21822;SDS011;11074;48.596;9.238;2023-06-22T09:29:51;12.52;;;6.72;;
21822;SDS011;11074;48.596;9.238;2023-06-22T09:32:17;12.02;;;5.78;;
21822;SDS011;11074;48.596;9.238;2023-06-22T09:34:43;9.98;;;6.10;;
21822;SDS011;11074;48.596;9.238;2023-06-22T09:37:08;10.35;;;5.95;;
21822;SDS011;11074;48.596;9.238;2023-06-22T09:39:34;12.88;;;6.18;;
21822;SDS011;11074;48.596;9.238;2023-06-22T09:42:01;11.30;;;5.78;;
21822;SDS011;11074;48.596;9.238;2023-06-22T09:44:26;16.23;;;6.18;;
21822;SDS011;11074;48.596;9.238;2023-06-22T09:46:52;15.57;;;6.75;;
21822;SDS011;11074;48.596;9.238;2023-06-22T09:49:18;13.02;;;6.97;;
21822;SDS011;11074;48.596;9.238;2023-06-22T09:51:44;14.52;;;6.38;;
21822;SDS011;11074;48.596;9.238;2023-06-22T09:54:09;12.55;;;6.05;;
21822;SDS011;11074;48.596;9.238;2023-06-22T09:56:35;10.13;;;6.35;;
21822;SDS011;11074;48.596;9.238;2023-06-22T09:59:02;14.48;;;6.13;;
21822;SDS011;11074;48.596;9.238;2023-06-22T10:01:28;10.10;;;6.28;;
21822;SDS011;11074;48.596;9.238;2023-06-22T10:03:53;9.73;;;5.88;;
21822;SDS011;11074;48.596;9.238;2023-06-22T10:06:21;11.15;;;6.50;;
21822;SDS011;11074;48.596;9.238;2023-06-22T10:08:47;12.43;;;5.78;;
21822;SDS011;11074;48.596;9.238;2023-06-22T10:11:15;11.98;;;6.00;;
21822;SDS011;11074;48.596;9.238;2023-06-22T10:13:40;10.40;;;5.80;;
21822;SDS011;11074;48.596;9.238;2023-06-22T10:16:06;10.82;;;5.95;;
21822;SDS011;11074;48.596;9.238;2023-06-22T10:18:32;9.98;;;5.85;;
21822;SDS011;11074;48.596;9.238;2023-06-22T10:20:57;14.10;;;6.07;;
21822;SDS011;11074;48.596;9.238;2023-06-22T10:23:23;10.90;;;5.70;;
21822;SDS011;11074;48.596;9.238;2023-06-22T10:25:49;11.32;;;6.15;;
21822;SDS011;11074;48.596;9.238;2023-06-22T10:28:15;10.82;;;5.55;;
21822;SDS011;11074;48.596;9.238;2023-06-22T10:30:41;11.93;;;6.00;;
21822;SDS011;11074;48.596;9.238;2023-06-22T10:33:08;8.75;;;5.90;;
21822;SDS011;11074;48.596;9.238;2023-06-22T10:35:35;12.60;;;5.85;;
21822;SDS011;11074;48.596;9.238;2023-06-22T10:38:02;14.15;;;5.93;;
21822;SDS011;11074;48.596;9.238;2023-06-22T10:40:29;11.25;;;5.60;;
21822;SDS011;11074;48.596;9.238;2023-06-22T10:42:55;9.23;;;5.65;;
21822;SDS011;11074;48.596;9.238;2023-06-22T10:45:20;11.93;;;5.85;;
21822;SDS011;11074;48.596;9.238;2023-06-22T10:47:46;12.35;;;5.80;;
21822;SDS011;11074;48.596;9.238;2023-06-22T10:50:12;9.38;;;6.03;;
21822;SDS011;11074;48.596;9.238;2023-06-22T10:52:38;11.18;;;6.15;;
21822;SDS011;11074;48.596;9.238;2023-06-22T10:55:06;11.50;;;5.70;;
21822;SDS011;11074;48.596;9.238;2023-06-22T10:57:33;14.73;;;6.65;;
21822;SDS011;11074;48.596;9.238;2023-06-22T10:59:59;13.27;;;6.43;;
21822;SDS011;11074;48.596;9.238;2023-06-22T11:02:25;12.50;;;6.25;;
21822;SDS011;11074;48.596;9.238;2023-06-22T11:04:53;9.90;;;6.05;;
21822;SDS011;11074;48.596;9.238;2023-06-22T11:07:18;14.52;;;6.35;;
21822;SDS011;11074;48.596;9.238;2023-06-22T11:09:44;10.50;;;5.55;;
21822;SDS011;11074;48.596;9.238;2023-06-22T11:12:10;12.32;;;5.90;;
21822;SDS011;11074;48.596;9.238;2023-06-22T11:14:36;12.10;;;5.60;;
21822;SDS011;11074;48.596;9.238;2023-06-22T11:17:01;13.23;;;6.10;;
21822;SDS011;11074;48.596;9.238;2023-06-22T11:19:27;10.60;;;6.05;;
21822;SDS011;11074;48.596;9.238;2023-06-22T11:21:53;12.07;;;6.00;;
21822;SDS011;11074;48.596;9.238;2023-06-22T11:24:18;14.95;;;5.82;;
21822;SDS011;11074;48.596;9.238;2023-06-22T11:26:44;9.63;;;5.75;;
21822;SDS011;11074;48.596;9.238;2023-06-22T11:29:10;12.15;;;5.78;;
21822;SDS011;11074;48.596;9.238;2023-06-22T11:31:35;11.40;;;6.05;;
21822;SDS011;11074;48.596;9.238;2023-06-22T11:34:02;14.27;;;6.03;;
21822;SDS011;11074;48.596;9.238;2023-06-22T11:36:28;13.60;;;5.65;;
21822;SDS011;11074;48.596;9.238;2023-06-22T11:38:57;9.52;;;5.53;;
21822;SDS011;11074;48.596;9.238;2023-06-22T11:41:23;11.25;;;5.70;;
21822;SDS011;11074;48.596;9.238;2023-06-22T11:43:49;11.13;;;5.70;;
21822;SDS011;11074;48.596;9.238;2023-06-22T11:46:15;11.85;;;6.30;;
21822;SDS011;11074;48.596;9.238;2023-06-22T11:48:40;12.25;;;6.22;;
21822;SDS011;11074;48.596;9.238;2023-06-22T11:51:06;13.32;;;6.30;;
21822;SDS011;11074;48.596;9.238;2023-06-22T11:53:33;16.25;;;5.93;;
21822;SDS011;11074;48.596;9.238;2023-06-22T11:56:00;14.13;;;5.90;;
21822;SDS011;11074;48.596;9.238;2023-06-22T11:58:26;12.73;;;5.93;;
21822;SDS011;11074;48.596;9.238;2023-06-22T12:00:53;12.30;;;6.07;;
21822;SDS011;11074;48.596;9.238;2023-06-22T12:03:19;12.38;;;6.15;;
21822;SDS011;11074;48.596;9.238;2023-06-22T12:05:46;19.48;;;6.50;;
21822;SDS011;11074;48.596;9.238;2023-06-22T12:08:13;15.45;;;6.50;;
21822;SDS011;11074;48.596;9.238;2023-06-22T12:10:39;12.35;;;5.72;;
21822;SDS011;11074;48.596;9.238;2023-06-22T12:13:04;13.48;;;6.10;;
21822;SDS011;11074;48.596;9.238;2023-06-22T12:15:30;13.77;;;5.60;;
21822;SDS011;11074;48.596;9.238;2023-06-22T12:17:56;13.77;;;5.90;;
21822;SDS011;11074;48.596;9.238;2023-06-22T12:20:22;13.80;;;6.13;;
21822;SDS011;11074;48.596;9.238;2023-06-22T12:22:47;11.02;;;5.40;;
21822;SDS011;11074;48.596;9.238;2023-06-22T12:25:16;14.18;;;5.70;;
21822;SDS011;11074;48.596;9.238;2023-06-22T12:27:42;11.13;;;5.93;;
21822;SDS011;11074;48.596;9.238;2023-06-22T12:30:08;11.00;;;5.43;;
21822;SDS011;11074;48.596;9.238;2023-06-22T12:32:34;13.55;;;5.90;;
21822;SDS011;11074;48.596;9.238;2023-06-22T12:34:59;11.35;;;5.57;;
21822;SDS011;11074;48.596;9.238;2023-06-22T12:37:25;13.25;;;5.85;;
21822;SDS011;11074;48.596;9.238;2023-06-22T12:39:51;10.75;;;5.18;;
21822;SDS011;11074;48.596;9.238;2023-06-22T12:42:19;16.13;;;5.68;;
21822;SDS011;11074;48.596;9.238;2023-06-22T12:44:46;11.18;;;5.35;;
21822;SDS011;11074;48.596;9.238;2023-06-22T12:47:11;9.98;;;6.10;;
21822;SDS011;11074;48.596;9.238;2023-06-22T12:49:38;13.13;;;5.80;;
21822;SDS011;11074;48.596;9.238;2023-06-22T12:52:08;10.75;;;5.22;;
21822;SDS011;11074;48.596;9.238;2023-06-22T12:54:35;10.63;;;5.80;;
21822;SDS011;11074;48.596;9.238;2023-06-22T12:57:01;12.45;;;5.80;;
21822;SDS011;11074;48.596;9.238;2023-06-22T12:59:27;9.82;;;5.63;;
21822;SDS011;11074;48.596;9.238;2023-06-22T13:01:52;12.30;;;5.82;;
21822;SDS011;11074;48.596;9.238;2023-06-22T13:04:18;10.15;;;5.68;;
21822;SDS011;11074;48.596;9.238;2023-06-22T13:06:44;11.60;;;5.55;;
21822;SDS011;11074;48.596;9.238;2023-06-22T13:09:13;13.50;;;5.80;;
21822;SDS011;11074;48.596;9.238;2023-06-22T13:11:41;15.23;;;6.10;;
21822;SDS011;11074;48.596;9.238;2023-06-22T13:14:07;11.30;;;5.65;;
21822;SDS011;11074;48.596;9.238;2023-06-22T13:16:33;16.48;;;5.70;;
21822;SDS011;11074;48.596;9.238;2023-06-22T13:18:59;11.52;;;6.22;;
21822;SDS011;11074;48.596;9.238;2023-06-22T13:21:24;13.30;;;5.95;;
21822;SDS011;11074;48.596;9.238;2023-06-22T13:23:50;12.70;;;5.88;;
21822;SDS011;11074;48.596;9.238;2023-06-22T13:26:16;13.13;;;5.70;;
21822;SDS011;11074;48.596;9.238;2023-06-22T13:28:42;15.45;;;5.78;;
21822;SDS011;11074;48.596;9.238;2023-06-22T13:31:07;11.07;;;5.15;;
21822;SDS011;11074;48.596;9.238;2023-06-22T13:33:33;11.70;;;5.50;;
21822;SDS011;11074;48.596;9.238;2023-06-22T13:35:58;16.92;;;5.78;;
21822;SDS011;11074;48.596;9.238;2023-06-22T13:38:24;10.98;;;6.13;;
21822;SDS011;11074;48.596;9.238;2023-06-22T13:40:50;10.20;;;5.55;;
21822;SDS011;11074;48.596;9.238;2023-06-22T13:43:16;15.95;;;6.20;;
21822;SDS011;11074;48.596;9.238;2023-06-22T13:45:42;13.25;;;5.72;;
21822;SDS011;11074;48.596;9.238;2023-06-22T13:48:08;10.30;;;5.45;;
21822;SDS011;11074;48.596;9.238;2023-06-22T13:50:34;16.00;;;6.00;;
21822;SDS011;11074;48.596;9.238;2023-06-22T13:53:00;12.15;;;6.05;;
21822;SDS011;11074;48.596;9.238;2023-06-22T13:55:26;15.98;;;6.30;;
21822;SDS011;11074;48.596;9.238;2023-06-22T13:57:52;11.20;;;5.63;;
21822;SDS011;11074;48.596;9.238;2023-06-22T14:00:18;19.25;;;5.90;;
21822;SDS011;11074;48.596;9.238;2023-06-22T14:02:45;11.68;;;5.90;;
21822;SDS011;11074;48.596;9.238;2023-06-22T14:05:11;14.75;;;5.55;;
21822;SDS011;11074;48.596;9.238;2023-06-22T14:07:36;10.73;;;5.53;;
21822;SDS011;11074;48.596;9.238;2023-06-22T14:10:02;11.73;;;5.88;;
21822;SDS011;11074;48.596;9.238;2023-06-22T14:12:30;13.57;;;6.28;;
21822;SDS011;11074;48.596;9.238;2023-06-22T14:14:55;12.05;;;5.57;;
21822;SDS011;11074;48.596;9.238;2023-06-22T14:17:22;14.52;;;6.18;;
21822;SDS011;11074;48.596;9.238;2023-06-22T14:19:49;13.40;;;6.07;;
21822;SDS011;11074;48.596;9.238;2023-06-22T14:22:17;13.63;;;5.55;;
21822;SDS011;11074;48.596;9.238;2023-06-22T14:24:44;14.07;;;5.95;;
21822;SDS011;11074;48.596;9.238;2023-06-22T14:27:10;12.70;;;5.93;;
21822;SDS011;11074;48.596;9.238;2023-06-22T14:29:36;13.38;;;5.65;;
21822;SDS011;11074;48.596;9.238;2023-06-22T14:32:02;11.23;;;5.18;;
21822;SDS011;11074;48.596;9.238;2023-06-22T14:34:29;11.02;;;5.05;;
21822;SDS011;11074;48.596;9.238;2023-06-22T14:36:55;8.90;;;5.45;;
21822;SDS011;11074;48.596;9.238;2023-06-22T14:39:20;7.97;;;5.22;;
21822;SDS011;11074;48.596;9.238;2023-06-22T14:41:46;12.25;;;5.55;;